Time;durP1;ratioP1;P1;durP2;ratioP2;P2;SDS_P1;SDS_P2;PMS_P1;PMS_P2;Temp;Humidity;BMP_temperature;BMP_pressure;BME280_temperature;BME280_humidity;BME280_pressure;Samples;Min_cycle;Max_cycle;Signal;HPM_P1;HPM_P2
2022/08/15 00:00:45;;;;;;;6.47;5.87;;;;;;;23.73;52.64;157471.16;4995612;28;20851;-90
2022/08/15 00:03:20;;;;;;;5.67;5.10;;;;;;;23.68;52.82;157458.09;4994498;28;20441;-89
2022/08/15 00:05:47;;;;;;;5.90;5.50;;;;;;;23.62;52.01;157443.69;4991917;28;20480;-89
2022/08/15 00:08:13;;;;;;;6.73;5.57;;;;;;;23.62;52.52;157442.38;4976092;28;20449;-90
2022/08/15 00:10:44;;;;;;;6.83;6.23;;;;;;;23.60;52.58;157437.16;4975401;28;20477;-89
2022/08/15 00:13:12;;;;;;;5.83;5.33;;;;;;;23.57;53.08;157429.31;4994919;28;20959;-89
2022/08/15 00:15:39;;;;;;;6.30;5.70;;;;;;;23.56;53.12;157428.00;4994770;28;20936;-90
2022/08/15 00:18:06;;;;;;;6.63;5.83;;;;;;;23.55;52.91;157425.41;4978476;28;20492;-90
2022/08/15 00:20:37;;;;;;;7.23;5.43;;;;;;;23.51;52.95;157414.94;4994519;28;20525;-90
2022/08/15 00:23:04;;;;;;;6.30;5.80;;;;;;;23.51;52.84;157413.69;4994432;28;20460;-90
2022/08/15 00:25:31;;;;;;;6.40;5.90;;;;;;;23.49;53.36;157408.41;4994743;28;20451;-89
2022/08/15 00:27:59;;;;;;;6.30;5.70;;;;;;;23.48;54.37;157405.81;4992089;28;20453;-90
2022/08/15 00:30:26;;;;;;;7.00;6.30;;;;;;;23.49;53.58;157408.41;4997342;28;20926;-89
2022/08/15 00:32:55;;;;;;;7.60;7.00;;;;;;;23.45;53.78;157397.97;5012280;28;20449;-90
2022/08/15 00:35:37;;;;;;;6.70;6.13;;;;;;;23.44;53.97;157395.34;4977904;28;20497;-89
2022/08/15 00:38:04;;;;;;;6.03;5.53;;;;;;;23.39;55.56;157383.59;4994444;28;20479;-90
2022/08/15 00:41:38;;;;;;;7.97;7.37;;;;;;;23.39;55.71;157382.28;5002671;28;20459;-89
2022/08/15 00:43:19;;;;;;;6.73;6.13;;;;;;;23.26;55.93;157348.25;5010864;28;20451;-89
2022/08/15 00:45:47;;;;;;;6.60;6.10;;;;;;;23.18;56.16;157327.34;4994226;28;20455;-89
2022/08/15 00:50:58;;;;;;;6.07;5.57;;;;;;;23.17;55.83;157326.00;5006523;28;20889;-88
2022/08/15 00:53:26;;;;;;;6.40;5.90;;;;;;;23.21;56.31;157335.19;5013743;28;20452;-89
2022/08/15 00:55:52;;;;;;;7.63;6.30;;;;;;;23.19;56.53;157329.97;4997865;28;20440;-89
2022/08/15 00:58:22;;;;;;;6.63;6.07;;;;;;;23.15;56.18;157319.47;4997821;28;20891;-89
2022/08/15 01:00:49;;;;;;;6.63;6.03;;;;;;;23.14;56.33;157316.91;4997807;28;20432;-89
2022/08/15 01:03:22;;;;;;;7.30;6.43;;;;;;;23.08;56.34;157302.53;4998772;28;20483;-89
2022/08/15 01:05:54;;;;;;;7.10;6.50;;;;;;;22.98;56.54;157277.66;4979868;28;20452;-89
2022/08/15 01:08:23;;;;;;;7.27;6.57;;;;;;;22.98;56.69;157276.41;4995924;28;20536;-89
2022/08/15 01:10:51;;;;;;;5.97;5.47;;;;;;;22.87;57.11;157248.97;5014812;28;20535;-90
2022/08/15 01:13:18;;;;;;;6.70;6.20;;;;;;;22.82;56.92;157235.84;5013411;28;20457;-90
2022/08/15 01:15:46;;;;;;;8.03;7.43;;;;;;;22.82;56.56;157235.84;4977219;28;20461;-90
2022/08/15 01:18:13;;;;;;;6.37;5.77;;;;;;;22.84;57.47;157239.78;4996124;28;20536;-89
2022/08/15 01:20:42;;;;;;;6.73;6.17;;;;;;;22.76;57.59;157218.88;4995358;28;20476;-90
2022/08/15 01:23:13;;;;;;;7.03;6.33;;;;;;;22.71;57.93;157207.16;4997404;28;20461;-90
2022/08/15 01:25:46;;;;;;;7.03;6.43;;;;;;;22.71;58.27;157205.84;4997030;28;20641;-89
2022/08/15 01:28:16;;;;;;;8.07;6.53;;;;;;;22.67;58.39;157196.66;5015811;28;20928;-89
2022/08/15 01:30:46;;;;;;;6.80;6.20;;;;;;;22.69;58.67;157200.63;4997536;28;20531;-89
2022/08/15 01:33:14;;;;;;;7.27;6.33;;;;;;;22.68;58.86;157199.31;5005695;28;20809;-90
2022/08/15 01:35:41;;;;;;;7.90;6.70;;;;;;;22.65;59.28;157191.47;4997004;28;20495;-89
2022/08/15 01:38:25;;;;;;;6.67;5.90;;;;;;;22.66;59.59;157194.09;5012891;28;20962;-89
2022/08/15 01:41:00;;;;;;;6.50;6.00;;;;;;;22.55;59.36;157165.28;5014437;28;20847;-89
2022/08/15 01:43:30;;;;;;;6.30;5.70;;;;;;;22.59;59.78;157175.72;5013741;28;20483;-89
2022/08/15 01:45:58;;;;;;;6.70;6.00;;;;;;;22.58;60.80;157173.13;4996785;28;20433;-90
2022/08/15 01:48:30;;;;;;;6.67;6.07;;;;;;;22.53;61.19;157158.75;5001228;28;20463;-89
2022/08/15 01:51:00;;;;;;;6.83;6.23;;;;;;;22.50;61.92;157152.22;4994501;28;20507;-90
2022/08/15 01:53:40;;;;;;;6.83;6.30;;;;;;;22.51;62.72;157154.81;4980932;28;20558;-90
2022/08/15 01:56:12;;;;;;;6.73;6.03;;;;;;;22.58;62.60;157171.81;5013785;28;20441;-90
2022/08/15 01:58:41;;;;;;;6.33;5.73;;;;;;;22.54;63.05;157162.66;5012228;28;20495;-90
2022/08/15 02:01:10;;;;;;;5.40;4.87;;;;;;;22.56;62.83;157167.88;4996389;28;20445;-90
2022/08/15 02:03:38;;;;;;;6.77;6.07;;;;;;;22.54;63.06;157162.66;4996788;28;20449;-90
2022/08/15 02:06:10;;;;;;;5.97;5.37;;;;;;;22.52;63.06;157157.44;5009011;28;20441;-90
2022/08/15 02:08:37;;;;;;;6.33;5.70;;;;;;;22.50;63.21;157150.91;4998808;28;20453;-90
2022/08/15 02:11:12;;;;;;;5.40;4.90;;;;;;;22.53;62.85;157160.03;4997148;28;20421;-90
2022/08/15 02:13:43;;;;;;;7.50;5.47;;;;;;;22.46;63.05;157141.75;4980864;28;20515;-90
2022/08/15 02:16:13;;;;;;;5.40;4.90;;;;;;;22.47;62.83;157143.06;4996069;28;20429;-90
2022/08/15 02:18:40;;;;;;;8.00;5.20;;;;;;;22.49;63.07;157149.59;4957720;28;20953;-90
2022/08/15 02:21:07;;;;;;;5.40;4.90;;;;;;;22.43;63.56;157135.22;4975630;28;20546;-90
2022/08/15 02:23:34;;;;;;;5.17;4.70;;;;;;;22.40;63.17;157126.06;4961593;28;20449;-91
2022/08/15 02:26:01;;;;;;;5.63;5.13;;;;;;;22.39;63.47;157124.81;4994035;28;20505;-90
2022/08/15 02:28:29;;;;;;;7.20;4.63;;;;;;;22.37;63.14;157118.28;4960602;28;20462;-90
2022/08/15 02:30:59;;;;;;;6.60;5.30;;;;;;;22.39;63.18;157123.47;4996174;28;20468;-90
2022/08/15 02:33:28;;;;;;;5.93;5.27;;;;;;;22.37;63.39;157118.28;4995860;28;20464;-90
2022/08/15 02:35:55;;;;;;;5.10;4.60;;;;;;;22.32;63.98;157105.16;4981093;28;20471;-90
2022/08/15 02:38:22;;;;;;;5.20;4.47;;;;;;;22.25;63.55;157086.91;4995092;28;20472;-90
2022/08/15 02:40:51;;;;;;;6.10;5.00;;;;;;;22.27;63.64;157092.13;4979708;28;20437;-90
2022/08/15 02:43:19;;;;;;;7.37;4.70;;;;;;;22.27;64.07;157093.44;4980673;28;20453;-90
2022/08/15 02:45:48;;;;;;;5.33;4.30;;;;;;;22.26;64.33;157089.53;4996644;28;20480;-89
2022/08/15 02:48:18;;;;;;;6.70;4.43;;;;;;;22.24;64.31;157085.59;4962154;28;20493;-90
2022/08/15 02:50:46;;;;;;;6.00;5.30;;;;;;;22.22;64.71;157080.38;4977880;28;20571;-90
2022/08/15 02:53:17;;;;;;;6.10;4.53;;;;;;;22.18;64.97;157069.94;4977204;28;20446;-90
2022/08/15 02:55:47;;;;;;;6.10;5.40;;;;;;;22.13;65.20;157056.88;4976245;28;21128;-90
2022/08/15 02:58:15;;;;;;;5.43;4.93;;;;;;;22.14;64.95;157058.16;5006786;28;20866;-89
2022/08/15 03:00:44;;;;;;;5.70;5.20;;;;;;;22.16;64.77;157063.41;4995984;28;20434;-90
2022/08/15 03:03:15;;;;;;;5.80;5.17;;;;;;;22.19;65.28;157072.53;4995712;28;20464;-90
2022/08/15 03:05:48;;;;;;;6.50;5.00;;;;;;;22.14;65.68;157058.16;5011410;28;20449;-90
2022/08/15 03:08:16;;;;;;;5.80;5.30;;;;;;;22.07;66.12;157039.88;4980456;28;20543;-90
2022/08/15 03:10:43;;;;;;;5.30;4.80;;;;;;;22.03;66.09;157029.47;5013851;28;20479;-90
2022/08/15 03:13:17;;;;;;;5.47;4.97;;;;;;;21.99;66.65;157019.00;4980323;28;20453;-90
2022/08/15 03:15:47;;;;;;;5.17;4.63;;;;;;;21.99;66.27;157020.31;4997027;28;20559;-90
2022/08/15 03:18:16;;;;;;;5.63;4.73;;;;;;;22.01;66.22;157024.22;4996710;28;20493;-90
2022/08/15 03:20:45;;;;;;;5.37;4.90;;;;;;;21.98;66.46;157017.69;5012397;28;20956;-90
2022/08/15 03:23:14;;;;;;;4.83;4.33;;;;;;;21.98;66.48;157016.38;4996479;28;20449;-90
2022/08/15 03:25:45;;;;;;;5.87;5.37;;;;;;;21.96;66.54;157011.16;4981178;28;20439;-90
2022/08/15 03:28:14;;;;;;;4.87;4.10;;;;;;;21.90;66.33;156995.47;4996158;28;20457;-90
2022/08/15 03:30:41;;;;;;;5.30;4.00;;;;;;;21.89;66.82;156992.88;4994554;28;20461;-90
2022/08/15 03:33:09;;;;;;;4.77;4.37;;;;;;;21.81;67.25;156974.56;4982168;28;20457;-90
2022/08/15 03:35:41;;;;;;;5.00;3.93;;;;;;;21.79;67.64;156968.00;4995884;28;20500;-90
2022/08/15 03:38:10;;;;;;;4.37;3.97;;;;;;;21.76;67.99;156961.47;4995639;28;20452;-90
2022/08/15 03:40:40;;;;;;;4.70;4.27;;;;;;;21.77;68.13;156964.09;4978211;28;20519;-90
2022/08/15 03:43:11;;;;;;;7.10;3.60;;;;;;;21.78;67.86;156966.75;4977416;28;20464;-90
2022/08/15 03:45:39;;;;;;;4.20;3.83;;;;;;;21.81;68.88;156974.56;4991341;28;20484;-90
2022/08/15 03:48:07;;;;;;;4.13;3.73;;;;;;;21.74;69.10;156956.25;4992261;28;20547;-90
2022/08/15 03:50:33;;;;;;;4.33;3.93;;;;;;;21.67;69.32;156938.00;4995522;28;21002;-90
2022/08/15 03:53:06;;;;;;;6.07;4.57;;;;;;;21.67;69.67;156938.00;4984236;28;20465;-90
2022/08/15 03:55:39;;;;;;;4.33;3.93;;;;;;;21.58;70.44;156913.16;4992119;28;20456;-90
2022/08/15 03:58:08;;;;;;;5.00;3.70;;;;;;;21.53;69.87;156901.44;5010777;28;20826;-90
2022/08/15 04:00:41;;;;;;;3.93;3.60;;;;;;;21.50;70.13;156893.59;5006409;28;20535;-90
2022/08/15 04:03:11;;;;;;;3.67;3.37;;;;;;;21.53;70.69;156900.13;4977181;28;20449;-90
2022/08/15 04:05:39;;;;;;;5.37;3.97;;;;;;;21.51;70.88;156896.22;5012045;28;20475;-90
2022/08/15 04:08:10;;;;;;;4.70;3.90;;;;;;;21.52;71.42;156898.84;4994411;28;20481;-91
2022/08/15 04:10:38;;;;;;;4.60;4.20;;;;;;;21.48;71.99;156888.38;4993856;28;20472;-90
2022/08/15 04:13:07;;;;;;;4.10;3.50;;;;;;;21.40;72.28;156867.50;4990246;28;20467;-90
2022/08/15 04:15:34;;;;;;;6.20;4.67;;;;;;;21.39;71.98;156864.91;4968627;28;20453;-90
2022/08/15 04:18:01;;;;;;;4.10;3.70;;;;;;;21.45;71.62;156880.53;4975683;28;20485;-90
2022/08/15 04:20:29;;;;;;;6.00;4.60;;;;;;;21.34;71.47;156851.81;4998121;28;20942;-91
2022/08/15 04:22:57;;;;;;;4.30;3.90;;;;;;;21.38;71.43;156862.28;4978727;28;20452;-90
2022/08/15 04:25:31;;;;;;;4.37;3.97;;;;;;;21.29;71.43;156838.78;4994464;28;20456;-90
2022/08/15 04:28:02;;;;;;;4.93;4.30;;;;;;;21.21;71.69;156819.22;4994738;28;20555;-90
2022/08/15 04:30:31;;;;;;;4.30;3.90;;;;;;;21.20;71.78;156815.31;4990846;28;20466;-88
2022/08/15 04:33:07;;;;;;;4.30;3.90;;;;;;;21.10;72.50;156790.50;4975109;28;20461;-90
2022/08/15 04:35:34;;;;;;;4.87;3.50;;;;;;;21.11;72.81;156791.81;4993526;28;20444;-91
2022/08/15 04:38:01;;;;;;;6.70;4.00;;;;;;;21.12;72.63;156794.44;4993601;28;20508;-90
2022/08/15 04:40:30;;;;;;;5.53;4.20;;;;;;;21.15;72.93;156802.25;4993645;28;20440;-90
2022/08/15 04:43:00;;;;;;;4.27;3.87;;;;;;;21.14;72.69;156799.63;4993776;28;20809;-89
2022/08/15 04:45:30;;;;;;;4.70;4.00;;;;;;;21.13;73.39;156797.00;4992655;28;20453;-90
2022/08/15 04:47:58;;;;;;;5.30;4.17;;;;;;;21.04;74.10;156774.81;4978158;28;20491;-90
2022/08/15 04:50:25;;;;;;;5.97;5.00;;;;;;;21.04;74.27;156774.81;4994229;28;20468;-89
2022/08/15 04:52:54;;;;;;;5.00;4.43;;;;;;;21.04;74.48;156773.50;5009602;28;20464;-90
2022/08/15 04:55:25;;;;;;;6.13;4.60;;;;;;;21.04;74.67;156773.50;4993914;28;20445;-90
2022/08/15 04:57:55;;;;;;;4.97;4.30;;;;;;;21.08;75.15;156785.28;4974223;28;20952;-90
2022/08/15 05:00:24;;;;;;;4.97;4.03;;;;;;;21.08;75.56;156783.97;4974406;28;20520;-90
2022/08/15 05:03:14;;;;;;;8.37;5.10;;;;;;;21.07;75.70;156781.38;4968505;28;20445;-78
2022/08/15 05:05:46;;;;;;;4.77;4.33;;;;;;;21.06;75.28;156780.06;4974255;28;20529;-78
2022/08/15 05:08:14;;;;;;;4.40;4.00;;;;;;;21.05;75.51;156776.06;4974612;28;20932;-78
2022/08/15 05:10:45;;;;;;;4.53;4.13;;;;;;;20.95;75.83;156750.00;4972837;28;20509;-78
2022/08/15 05:13:16;;;;;;;5.93;4.10;;;;;;;20.91;75.23;156739.56;4989838;28;20445;-78
2022/08/15 05:15:44;;;;;;;3.90;3.50;;;;;;;20.91;75.27;156740.88;4973608;28;20481;-78
2022/08/15 05:18:12;;;;;;;7.03;3.40;;;;;;;20.94;74.80;156747.41;4973910;28;20453;-77
2022/08/15 05:20:41;;;;;;;4.60;4.20;;;;;;;21.00;74.14;156763.03;4965199;28;20450;-77
2022/08/15 05:23:10;;;;;;;4.07;3.67;;;;;;;20.98;74.08;156759.13;4971610;28;20570;-77
2022/08/15 05:25:51;;;;;;;4.00;3.53;;;;;;;20.94;74.02;156747.41;4956314;28;20588;-78
2022/08/15 05:28:21;;;;;;;5.10;4.63;;;;;;;20.95;74.37;156751.31;4988121;28;20466;-75
2022/08/15 05:30:48;;;;;;;4.37;3.53;;;;;;;20.92;74.18;156743.47;4989723;28;20982;-77
2022/08/15 05:33:17;;;;;;;4.20;3.80;;;;;;;20.98;73.87;156757.81;4990510;28;20862;-76
2022/08/15 05:35:46;;;;;;;3.60;3.30;;;;;;;20.95;74.29;156750.00;4979125;28;20504;-77
2022/08/15 05:38:16;;;;;;;4.80;3.80;;;;;;;20.94;75.43;156747.41;4969377;28;20454;-77
2022/08/15 05:40:50;;;;;;;4.50;3.40;;;;;;;20.86;75.96;156726.53;4984086;28;20449;-77
2022/08/15 05:43:31;;;;;;;5.87;4.80;;;;;;;20.89;75.93;156734.38;4994364;28;20545;-77
2022/08/15 05:46:22;;;;;;;3.37;3.07;;;;;;;20.85;75.72;156723.91;4995412;28;20440;-77
2022/08/15 05:49:00;;;;;;;3.53;3.23;;;;;;;20.92;75.31;156742.16;4977497;28;20462;-78
2022/08/15 05:51:40;;;;;;;3.40;3.10;;;;;;;20.91;74.46;156740.88;4977934;28;20577;-77
2022/08/15 05:54:16;;;;;;;3.43;3.13;;;;;;;20.89;74.60;156734.38;4968335;28;20540;-77
2022/08/15 05:56:53;;;;;;;3.40;3.10;;;;;;;20.92;74.50;156742.16;4961587;28;20421;-77
2022/08/15 05:59:24;;;;;;;3.73;3.43;;;;;;;20.91;74.22;156739.56;4980332;28;20453;-78
2022/08/15 06:02:06;;;;;;;4.20;3.47;;;;;;;20.93;74.11;156746.09;4977057;28;20536;-77
2022/08/15 06:04:41;;;;;;;3.27;2.97;;;;;;;20.97;73.80;156755.25;4957520;28;20454;-78
2022/08/15 06:07:12;;;;;;;4.30;3.43;;;;;;;20.98;73.83;156757.81;4964041;28;20508;-77
2022/08/15 06:09:43;;;;;;;3.60;3.10;;;;;;;20.96;73.71;156752.63;4977220;28;20464;-77
2022/08/15 06:12:18;;;;;;;3.70;3.30;;;;;;;20.94;73.82;156747.41;4992589;28;20572;-78
2022/08/15 06:14:51;;;;;;;3.40;2.77;;;;;;;20.99;74.39;156761.75;4976554;28;20438;-77
2022/08/15 06:17:21;;;;;;;3.33;2.83;;;;;;;20.98;77.52;156757.81;4993762;28;20458;-78
2022/08/15 06:19:50;;;;;;;3.40;2.97;;;;;;;20.92;78.09;156742.16;4997258;28;20495;-78
2022/08/15 06:22:41;;;;;;;5.47;3.50;;;;;;;20.88;79.35;156733.06;4981046;28;20815;-79
2022/08/15 06:25:14;;;;;;;4.23;3.60;;;;;;;20.87;79.80;156729.09;5012405;28;20445;-78
2022/08/15 06:31:33;;;;;;;4.70;3.10;;;;;;;20.91;79.27;156739.56;4977082;28;20488;-78
2022/08/15 06:34:06;;;;;;;4.03;3.27;;;;;;;20.86;79.08;156727.84;4995270;28;20445;-88
2022/08/15 06:36:41;;;;;;;3.90;3.20;;;;;;;20.82;79.59;156716.06;4983645;28;20528;-86
2022/08/15 06:39:18;;;;;;;6.10;3.23;;;;;;;20.81;79.82;156714.75;4981098;28;20457;-88
2022/08/15 06:42:20;;;;;;;3.10;2.80;;;;;;;20.86;79.85;156726.53;4984477;28;20483;-89
2022/08/15 06:44:59;;;;;;;3.47;3.17;;;;;;;20.95;78.23;156750.00;4946504;29;20452;-88
2022/08/15 06:47:28;;;;;;;4.83;3.27;;;;;;;20.99;78.45;156760.44;4978088;28;20449;-89
2022/08/15 06:50:00;;;;;;;3.27;2.97;;;;;;;21.22;77.47;156821.84;4977844;28;20559;-89
2022/08/15 06:52:29;;;;;;;3.50;3.20;;;;;;;21.52;75.99;156898.84;4994132;28;20495;-89
2022/08/15 06:54:56;;;;;;;6.47;3.40;;;;;;;21.74;74.85;156956.25;4988426;28;20453;-89
2022/08/15 06:57:39;;;;;;;4.20;3.00;;;;;;;21.88;72.98;156990.25;4989429;28;20833;-89
2022/08/15 07:00:10;;;;;;;4.13;3.40;;;;;;;21.98;72.45;157016.38;4982797;28;20988;-89
2022/08/15 07:03:03;;;;;;;4.33;2.60;;;;;;;22.07;71.63;157039.88;5000605;28;20459;-89
2022/08/15 07:05:34;;;;;;;3.30;2.70;;;;;;;22.21;70.65;157076.47;4996001;28;20449;-88
2022/08/15 07:08:05;;;;;;;4.10;3.00;;;;;;;22.37;70.16;157118.28;5005764;28;20536;-88
2022/08/15 07:13:40;;;;;;;3.43;3.10;;;;;;;23.21;67.21;157336.50;4992364;28;20567;-78
2022/08/15 07:20:07;;;;;;;2.97;2.50;;;;;;;24.99;60.90;157798.25;4967341;28;20571;-78
2022/08/15 07:22:39;;;;;;;3.50;2.90;;;;;;;25.38;58.37;157900.31;4959773;28;20444;-78
2022/08/15 07:25:10;;;;;;;4.60;3.27;;;;;;;25.80;57.62;158009.00;4959358;28;20817;-77
2022/08/15 07:27:38;;;;;;;3.77;2.73;;;;;;;26.19;55.23;158109.84;4991667;28;20569;-78
2022/08/15 07:30:16;;;;;;;3.00;2.70;;;;;;;26.56;54.76;158206.75;4972538;28;20475;-79
2022/08/15 07:32:50;;;;;;;3.90;3.00;;;;;;;26.94;53.49;158303.75;4971989;28;20560;-78
2022/08/15 07:35:23;;;;;;;6.17;2.67;;;;;;;26.63;52.86;158222.50;4959238;28;20449;-79
2022/08/15 07:37:56;;;;;;;3.57;2.90;;;;;;;26.19;52.94;158108.53;4992449;28;20446;-79
2022/08/15 07:40:26;;;;;;;2.70;2.50;;;;;;;25.92;53.54;158040.41;4975870;28;20500;-78
2022/08/15 07:42:53;;;;;;;3.00;2.47;;;;;;;25.72;54.74;157986.72;4990421;28;20872;-78
2022/08/15 07:45:29;;;;;;;4.00;2.40;;;;;;;26.17;53.54;158104.63;4975522;28;20894;-79
2022/08/15 07:48:04;;;;;;;3.00;2.60;;;;;;;26.67;51.27;158234.25;4957562;28;20449;-78
2022/08/15 07:50:37;;;;;;;4.73;2.40;;;;;;;27.18;50.39;158366.63;4973121;28;20465;-79
2022/08/15 07:53:12;;;;;;;4.47;2.90;;;;;;;27.46;49.92;158440.06;4970530;28;21032;-79
2022/08/15 07:55:40;;;;;;;2.70;2.50;;;;;;;27.68;48.90;158497.75;4955876;28;20796;-79
2022/08/15 07:58:17;;;;;;;3.63;2.60;;;;;;;27.51;48.76;158453.16;4980136;28;20450;-79
2022/08/15 08:00:52;;;;;;;4.30;2.40;;;;;;;27.20;49.38;158371.88;4959035;28;20951;-79
2022/08/15 08:03:27;;;;;;;5.07;2.93;;;;;;;26.87;50.01;158285.44;4969954;28;20442;-86
2022/08/15 08:06:04;;;;;;;2.60;2.40;;;;;;;26.82;50.33;158272.31;4975601;28;20481;-87
2022/08/15 08:08:53;;;;;;;2.80;2.10;;;;;;;27.31;49.03;158400.69;4958401;28;20457;-79
2022/08/15 08:11:24;;;;;;;2.90;2.60;;;;;;;27.72;48.46;158508.19;4979917;28;20481;-87
2022/08/15 08:13:57;;;;;;;4.90;2.43;;;;;;;28.13;47.75;158613.13;4974609;28;20454;-87
2022/08/15 08:16:28;;;;;;;2.93;2.40;;;;;;;28.30;47.18;158657.72;4973903;28;20900;-88
2022/08/15 08:19:02;;;;;;;3.63;2.23;;;;;;;28.53;46.67;158718.03;4989792;28;20461;-86
2022/08/15 08:21:37;;;;;;;4.80;2.40;;;;;;;28.89;45.72;158812.50;4987880;28;20769;-86
2022/08/15 08:24:22;;;;;;;2.80;2.60;;;;;;;28.99;45.79;158838.72;4958173;28;20539;-85
2022/08/15 08:26:55;;;;;;;4.33;2.40;;;;;;;29.36;44.44;158933.25;4971185;28;20530;-87
2022/08/15 08:29:30;;;;;;;5.00;2.37;;;;;;;29.42;43.62;158950.28;4945704;28;20441;-85
2022/08/15 08:32:05;;;;;;;2.57;2.37;;;;;;;29.58;43.07;158992.28;4987040;28;20465;-85
2022/08/15 08:34:36;;;;;;;2.67;2.00;;;;;;;29.55;43.05;158983.09;4987588;28;20559;-85
2022/08/15 08:37:09;;;;;;;3.50;2.53;;;;;;;29.30;43.35;158918.81;4992677;28;20440;-85
2022/08/15 08:39:41;;;;;;;2.20;2.00;;;;;;;29.37;43.35;158937.19;4992202;28;20493;-85
2022/08/15 08:42:16;;;;;;;2.73;2.40;;;;;;;29.29;42.93;158914.84;4973642;28;20549;-85
2022/08/15 08:44:47;;;;;;;2.57;2.37;;;;;;;29.25;43.55;158904.38;4974552;28;20463;-85
2022/08/15 08:47:24;;;;;;;2.43;2.13;;;;;;;29.42;42.57;158948.97;4992085;28;20429;-85
2022/08/15 08:50:00;;;;;;;2.43;2.10;;;;;;;29.66;41.85;159011.97;4991728;28;20592;-85
2022/08/15 08:52:34;;;;;;;2.30;2.10;;;;;;;29.71;42.49;159023.75;4972913;28;20541;-85
2022/08/15 08:55:04;;;;;;;2.27;1.73;;;;;;;29.72;42.19;159026.41;4974219;28;20449;-85
2022/08/15 08:57:34;;;;;;;2.33;1.90;;;;;;;29.88;41.94;159069.78;4988895;28;20504;-85
2022/08/15 09:00:05;;;;;;;2.50;1.90;;;;;;;29.95;42.00;159086.81;4991764;28;20445;-85
2022/08/15 09:02:37;;;;;;;2.67;2.40;;;;;;;29.83;41.51;159056.66;4991492;28;20824;-85
2022/08/15 09:05:08;;;;;;;2.47;2.27;;;;;;;29.63;42.08;159004.09;4992007;28;20437;-85
2022/08/15 09:07:44;;;;;;;2.27;2.07;;;;;;;29.52;41.90;158975.25;4973299;28;20446;-85
2022/08/15 09:10:13;;;;;;;2.23;2.03;;;;;;;29.50;41.68;158971.28;4973664;28;20457;-85
2022/08/15 09:15:27;;;;;;;4.13;2.50;;;;;;;28.97;42.72;158833.50;4977203;28;20453;-86
2022/08/15 09:17:59;;;;;;;2.50;2.30;;;;;;;29.11;42.10;158868.91;4977617;28;20457;-86
2022/08/15 09:20:28;;;;;;;2.53;2.33;;;;;;;29.12;41.16;158870.22;4978134;28;20556;-86
2022/08/15 09:22:57;;;;;;;2.60;2.37;;;;;;;29.17;41.54;158883.34;4976965;28;20451;-86
2022/08/15 09:25:24;;;;;;;2.50;2.30;;;;;;;29.12;40.85;158870.22;4992839;28;20493;-86
2022/08/15 09:28:03;;;;;;;3.27;2.17;;;;;;;29.02;40.72;158844.00;4978026;28;20456;-86
2022/08/15 09:30:31;;;;;;;2.33;2.10;;;;;;;29.07;41.63;158857.13;4978654;28;20806;-86
2022/08/15 09:33:06;;;;;;;2.57;2.37;;;;;;;29.10;41.52;158865.00;4994592;28;20556;-86
2022/08/15 09:35:49;;;;;;;2.53;2.33;;;;;;;29.31;40.78;158920.16;4978736;28;20781;-86
2022/08/15 09:38:31;;;;;;;2.50;2.30;;;;;;;29.05;40.93;158853.16;4994489;28;20426;-86
2022/08/15 09:41:20;;;;;;;2.80;2.50;;;;;;;28.69;42.15;158760.06;4956618;28;20481;-86
2022/08/15 09:43:56;;;;;;;2.43;2.23;;;;;;;28.33;42.68;158665.56;4989227;28;20473;-87
2022/08/15 09:46:42;;;;;;;2.80;2.43;;;;;;;28.44;42.31;158694.41;4975673;28;20777;-87
2022/08/15 09:49:22;;;;;;;3.47;2.40;;;;;;;28.51;41.98;158712.81;4973886;28;20446;-87
2022/08/15 09:52:09;;;;;;;5.57;3.10;;;;;;;28.80;41.61;158788.91;4983722;28;20476;-86
2022/08/15 09:54:46;;;;;;;2.53;2.33;;;;;;;28.87;40.82;158805.94;4991741;28;20893;-86
2022/08/15 09:57:34;;;;;;;3.00;2.57;;;;;;;28.68;40.90;158757.41;4971305;28;20567;-86
2022/08/15 10:00:05;;;;;;;2.10;1.90;;;;;;;28.55;41.91;158721.94;4977723;28;20449;-86
2022/08/15 10:02:38;;;;;;;4.00;2.30;;;;;;;28.87;40.95;158807.25;4993012;28;20421;-87
2022/08/15 10:05:14;;;;;;;2.70;2.50;;;;;;;29.07;39.84;158857.13;4993997;28;20536;-86
2022/08/15 10:07:48;;;;;;;2.77;2.57;;;;;;;29.03;39.86;158847.91;4993412;28;20425;-87
2022/08/15 10:10:22;;;;;;;3.13;2.47;;;;;;;29.16;39.47;158880.69;4993826;28;20896;-86
2022/08/15 10:13:13;;;;;;;2.50;2.30;;;;;;;29.13;39.58;158874.16;4989004;28;20496;-87
2022/08/15 10:15:43;;;;;;;3.50;2.93;;;;;;;28.45;43.59;158697.06;4989742;28;20454;-81
2022/08/15 10:18:11;;;;;;;3.80;3.10;;;;;;;27.60;45.07;158476.75;4973472;28;20481;-83
2022/08/15 10:20:51;;;;;;;2.53;2.30;;;;;;;27.58;45.54;158471.53;4974820;28;20529;-82
2022/08/15 10:23:22;;;;;;;3.03;2.80;;;;;;;28.01;42.32;158582.91;4973515;28;20419;-81
2022/08/15 10:26:10;;;;;;;2.77;2.57;;;;;;;28.24;41.26;158641.97;4967009;28;20474;-82
2022/08/15 10:28:40;;;;;;;2.60;2.40;;;;;;;28.39;41.56;158681.31;4982979;28;20809;-82
2022/08/15 10:31:24;;;;;;;3.27;2.70;;;;;;;28.77;39.57;158781.03;4974270;28;20553;-82
2022/08/15 10:33:52;;;;;;;3.53;2.63;;;;;;;28.51;40.06;158712.81;4972704;28;20952;-82
2022/08/15 10:36:24;;;;;;;2.70;2.50;;;;;;;28.50;40.78;158710.16;4971681;28;20458;-82
2022/08/15 10:38:57;;;;;;;4.03;2.67;;;;;;;28.16;43.27;158621.00;4973117;28;20438;-81
2022/08/15 10:41:34;;;;;;;3.87;3.57;;;;;;;28.06;42.30;158594.78;4987848;28;20449;-82
2022/08/15 10:44:10;;;;;;;3.33;3.10;;;;;;;28.18;42.41;158626.22;4970924;28;20504;-83
2022/08/15 10:46:50;;;;;;;2.67;2.47;;;;;;;28.32;41.53;158664.28;4981319;28;20469;-83
2022/08/15 10:49:25;;;;;;;2.60;2.40;;;;;;;27.88;43.21;158547.56;4942147;28;20462;-83
2022/08/15 10:52:03;;;;;;;3.10;2.87;;;;;;;27.95;41.33;158565.91;4972223;28;20466;-83
2022/08/15 10:54:42;;;;;;;2.93;2.60;;;;;;;27.95;41.17;158567.22;4972709;28;20525;-82
2022/08/15 10:57:11;;;;;;;3.33;3.07;;;;;;;27.94;40.96;158563.25;4971754;28;20802;-83
2022/08/15 10:59:41;;;;;;;2.80;2.60;;;;;;;27.67;40.70;158495.09;4972106;28;20466;-83
2022/08/15 11:02:17;;;;;;;3.33;3.03;;;;;;;27.73;42.36;158510.84;4971644;28;20541;-83
2022/08/15 11:04:45;;;;;;;3.17;2.87;;;;;;;27.88;44.27;158548.81;4974153;28;20450;-83
2022/08/15 11:07:33;;;;;;;4.23;3.17;;;;;;;27.60;45.75;158476.75;4973510;28;20435;-83
2022/08/15 11:10:02;;;;;;;3.60;3.30;;;;;;;27.52;45.63;158455.78;4972351;28;20473;-83
2022/08/15 11:12:34;;;;;;;3.43;3.07;;;;;;;27.61;45.76;158478.09;4971320;28;20499;-83
2022/08/15 11:15:06;;;;;;;3.33;2.90;;;;;;;27.71;44.38;158505.59;4973793;28;20859;-82
2022/08/15 11:17:35;;;;;;;3.40;3.10;;;;;;;27.84;43.38;158537.03;4971584;28;20446;-82
2022/08/15 11:20:06;;;;;;;3.60;3.30;;;;;;;27.99;43.90;158576.34;4969292;28;20545;-83
2022/08/15 11:22:34;;;;;;;3.50;3.20;;;;;;;28.14;42.11;158615.78;4973129;28;20427;-83
2022/08/15 11:25:04;;;;;;;3.07;2.87;;;;;;;28.22;40.00;158638.03;4972412;28;20450;-83
2022/08/15 11:27:32;;;;;;;3.30;3.10;;;;;;;28.25;40.25;158645.91;4967392;28;20445;-83
2022/08/15 11:29:59;;;;;;;2.97;2.77;;;;;;;28.40;39.54;158683.94;4972749;28;20470;-83
2022/08/15 11:32:29;;;;;;;3.63;2.97;;;;;;;28.39;39.00;158681.31;4971872;28;20565;-82
2022/08/15 11:35:01;;;;;;;3.30;3.00;;;;;;;28.31;41.17;158661.63;4969873;28;20463;-83
2022/08/15 11:37:31;;;;;;;3.20;3.00;;;;;;;27.96;42.74;158569.81;4970889;28;20442;-83
2022/08/15 11:40:02;;;;;;;3.70;3.40;;;;;;;27.43;42.88;158432.19;4973783;28;20550;-83
2022/08/15 11:42:37;;;;;;;3.07;2.87;;;;;;;27.50;43.12;158450.56;4972232;28;20442;-83
2022/08/15 11:45:07;;;;;;;3.03;2.50;;;;;;;27.32;42.69;158403.34;4986094;28;20450;-83
2022/08/15 11:47:35;;;;;;;3.80;3.23;;;;;;;27.19;43.05;158370.56;4972820;28;20474;-82
2022/08/15 11:50:06;;;;;;;3.30;3.00;;;;;;;26.96;43.19;158310.28;4973058;28;21021;-82
2022/08/15 11:52:35;;;;;;;3.90;3.23;;;;;;;26.88;43.99;158288.00;4971044;28;20553;-82
2022/08/15 11:55:42;;;;;;;3.03;2.73;;;;;;;26.87;44.31;158285.44;4969266;28;21211;-82
2022/08/15 11:58:22;;;;;;;3.80;3.40;;;;;;;26.99;45.45;158316.84;4927202;28;20557;-83
2022/08/15 12:00:51;;;;;;;3.50;3.20;;;;;;;27.06;45.85;158335.16;4972637;28;20446;-82
2022/08/15 12:03:20;;;;;;;5.17;2.90;;;;;;;27.13;45.66;158354.88;4970500;28;20459;-83